Accueil
METAR-TAF:

METAR-TAF

Aéroports :

Fritzlar, Allemagne

latitude: 51-07N, longitude: 009-17E, altitude: 172 m

Observation

Le bulletin a été fait il y a 23 minutes, à 21:20 UTC
Vent 5 kt de nord-ouest
Température 2°C
Humidité 69%
Pression 1030 hPa
Visibilité 10 km ou plus

METAR: ETHF 132120Z AUTO 31005KT 9999 // ////// 02/M03 Q1030 ///

Heure: 23:43 (21:43 UTC)

Prévision

Le bulletin a été fait il y a 8 heures et 23 minutes, à 13:20 UTC
Prévision valable du 13 à 14 UTC au 13 à 23 UTC
Vent 8 kt de nord/nord-ouest
Visibilité 10 km ou plus
Nuages épars à une hauteur de 2500 ft
Nuages fragmentés à une hauteur de 4000 ft
Temporairement
du 13 à 14 UTC au 13 à 18 UTC
Vent 12 kt de nord/nord-ouest avec des rafales jusqu'à 22 kt
Visibilité: 4000 m
Nuages fragmentés à une hauteur de 2000 ft, Cumulonimbus.
averses de neige

TAF: ETHF 131320Z 1314/1323 33008KT 9999 NSW SCT025 BKN040 TEMPO 1314/1318 34012G22KT 4000 SHSN BKN020CB

Observations et prévisions météorologiques de plus de 4000 aéroports (messages METAR et TAF).

Les stations disponibles sont représentées par des disques jaunes et rouges sur la carte.

Passer la souris dessus pour voir le nom de la station.

Cliquer dessus pour voir les observations et prévisions météorologiques.

Pour changer de carte: cliquez sur les boutons verts avec une croix noire pour zoomer, sur le bouton vert avec un tiret pour effectuer un zoom arrière, ou sur les flèches vertes pour les cartes adjacentes.


METAR-TAF: